Main page
METAR-TAF:

METAR-TAF

Airports :

Southampton Airport

Southampton, England

latitude: 50-54N, longitude: 001-24W, elevation: 9 m

Current weather observation

The report was made 25 minutes ago, at 08:50 UTC
Calm wind
Temperature 7°C
Humidity 70%
Pressure 1036 hPa
Visibility 10 km or more
no clouds below 1500 m and no cumulonimbus

METAR: EGHI 260850Z 00000KT CAVOK 07/02 Q1036

Time: 09:15 (09:15 UTC)

Forecast

The report was made 1 hour and 17 minutes ago, at 07:58 UTC
Forecast valid from 26 at 09 UTC to 26 at 18 UTC
Wind 4 kt from the North
Visibility 10 km or more
no clouds below 1500 m and no cumulonimbus
Probability 30% :
Temporary
from 26 at 12 UTC to 26 at 18 UTC
Broken clouds at a height of 3500 ft

TAF: EGHI 260758Z 2609/2618 35004KT CAVOK PROB30 TEMPO 2612/2618 BKN035

Weather observations and forecasts of more than 4000 airports (METAR and TAF reports).

The available stations are represented by yellow and red dots on the map.

Hover mouse over dot to see the name of the station.

Then click to see weather observations and forecasts.

To change the map : click on the green buttons with a black cross to zoom in, on the green button with a dash to zoom out, or on the green arrows for adjacent maps.


METAR-TAF: